This is the latest recevied weather packets stored in our database for station/object IZ8QAD-11. If no packets are shown the sender has not sent any weather packets the latest 10 day(s).
| Time | Temp. | Humidity | Pressure | Rain* | Wind** | Luminosity | Snow |
|---|---|---|---|---|---|---|---|
| 1777718566 | 24.44° C | 34% | 975 hPa | - | - | - | - |
| 1777714965 | 27.78° C | 32% | 974.8 hPa | - | - | - | - |
| 1777711364 | 25.56° C | 38% | 975 hPa | - | - | - | - |
| 1777707764 | 22.22° C | 43% | 975.4 hPa | - | - | - | - |
| 1777704163 | 18.89° C | 53% | 975.3 hPa | - | - | - | - |
| 1777700562 | 13.33° C | 57% | 975.2 hPa | - | - | - | - |
| 1777696961 | 9.44° C | 57% | 975 hPa | - | - | - | - |
| 1777693361 | 9.44° C | 54% | 974.6 hPa | - | - | - | - |
| 1777689760 | 8.33° C | 51% | 974.5 hPa | - | - | - | - |
| 1777686159 | 10° C | 50% | 974.6 hPa | - | - | - | - |
| 1777682558 | 10.56° C | 48% | 974.8 hPa | - | - | - | - |
| 1777678957 | 10° C | 47% | 974.8 hPa | - | - | - | - |
| 1777675357 | 9.44° C | 46% | 974.9 hPa | - | - | - | - |
| 1777671756 | 9.44° C | 46% | 975.3 hPa | - | - | - | - |
| 1777668157 | 10.56° C | 45% | 975 hPa | - | - | - | - |
| 1777664551 | 11.11° C | 44% | 974.5 hPa | - | - | - | - |
| 1777660950 | 11.11° C | 41% | 974.2 hPa | - | - | - | - |
| 1777657357 | 12.22° C | 38% | 973.5 hPa | - | - | - | - |
| 1777653748 | 13.89° C | 38% | 973.1 hPa | - | - | - | - |
| 1777646557 | 20° C | 35% | 973 hPa | - | - | - | - |
| 1777642946 | 22.22° C | 36% | 973.2 hPa | - | - | - | - |
| 1777639345 | 22.22° C | 39% | 973.6 hPa | - | - | - | - |
| 1777632143 | 18.33° C | 46% | 974.2 hPa | - | - | - | - |
| 1777628542 | 22.22° C | 48% | 974.1 hPa | - | - | - | - |
| 1777621341 | 17.78° C | 59% | 974 hPa | - | - | - | - |
* Rain since midnight (hover to see other rain measurements)
** Current wind speed in m/s (hover to see current wind gust speed)